La Rochelle-Île de Ré Airport

LFBH · Département de la Charente-Maritime, Aquitaine-Limousin-Poitou-Charentes, France

METAR anciennes LFBH · Aéroport de La Rochelle-île de Ré

Tu vois ci-dessous les METAR des derniers jours. Sélectionne une année pour parcourir les METAR plus anciens, à partir de l'année 2007.

9 décembre 2022

Temps Code Temps Temp. Vue Base cloud Vent METAR/SPECI
07:00
V
2 °C 10 km+ 4.500 ft 040° 040° 13 kt METAR LFBH 090600Z AUTO 04013KT 9999 OVC045 02/M00 Q1002 TEMPO BKN006
06:30
V
2 °C 10 km+ 5.400 ft 040° 040° 15 kt METAR LFBH 090530Z AUTO 04015KT 9999 SCT043 OVC054 02/M00 Q1002 TEMPO BKN006
06:00
V
2 °C 10 km+ 5.400 ft 040° 040° 13 kt METAR LFBH 090500Z AUTO 04013KT 9999 FEW044 OVC054 02/M00 Q1002 NOSIG
05:30
V
2 °C 10 km+ 4.200 ft 040° 040° 13 kt METAR LFBH 090430Z AUTO 04013KT 9999 BKN042 OVC054 02/M00 Q1002 NOSIG
05:00
V
2 °C 10 km+ 5.400 ft 040° 040° 13 kt METAR LFBH 090400Z AUTO 04013KT 9999 FEW027 SCT039 OVC054 02/M00 Q1002 NOSIG
04:30
V
2 °C 10 km+ - 040° 040° 14 kt METAR LFBH 090330Z AUTO 04014KT CAVOK 02/M00 Q1001 NOSIG
04:00
V
2 °C 10 km+ 5.200 ft 050° 050° 14 kt METAR LFBH 090300Z AUTO 05014KT 9999 FEW026 OVC052 02/M00 Q1002 NOSIG
03:30
V
2 °C 10 km+ - 050° 050° 13 kt METAR LFBH 090230Z AUTO 05013KT CAVOK 02/M00 Q1002 NOSIG
03:00
V
2 °C 10 km+ 9.400 ft 050° 050° 12 kt METAR LFBH 090200Z AUTO 05012KT 9999 FEW037 BKN094 OVC130 02/M00 Q1002 NOSIG
02:30
V
2 °C 10 km+ 3.800 ft 050° 050° 11 kt METAR LFBH 090130Z AUTO 05011KT 9999 FEW031 OVC038 02/M00 Q1002 NOSIG
02:00
V
2 °C 10 km+ 3.900 ft 050° 050° 13 kt METAR LFBH 090100Z AUTO 05013KT 9999 FEW030 OVC039 02/00 Q1002 NOSIG
01:30
V
2 °C 10 km+ 3.700 ft 050° 050° 14 kt METAR LFBH 090030Z AUTO 05014KT 9999 OVC037 02/00 Q1002 NOSIG
01:00
V
2 °C 10 km+ 5.000 ft 050° 050° 15 kt METAR LFBH 090000Z AUTO 05015KT 9999 FEW037 BKN050 OVC140 02/M00 Q1002 NOSIG
00:30
V
2 °C 10 km+ 4.900 ft 050° 050° 16 kt METAR LFBH 082330Z AUTO 05016KT 9999 -RA SCT039 BKN049 OVC058 02/00 Q1002 NOSIG
00:00
V
2 °C 10 km+ 3.500 ft 060° 060° 17 kt METAR LFBH 082300Z AUTO 06017KT 9999 BKN035 OVC047 02/M00 Q1003 TEMPO BKN006

8 décembre 2022

Temps Code Temps Temp. Vue Base cloud Vent METAR/SPECI
23:30
V
2 °C 10 km+ 4.700 ft 060° 060° 14 kt METAR LFBH 082230Z AUTO 06014KT 9999 FEW019 SCT036 OVC047 02/M00 Q1003 TEMPO BKN006
23:00
M
2 °C 10 km+ 2.000 ft 060° 060° 16 kt METAR LFBH 082200Z AUTO 06016KT 9999 BKN020 OVC033 02/00 Q1003 NOSIG
22:30
V
2 °C 10 km+ 3.100 ft 060° 060° 15 kt METAR LFBH 082130Z AUTO 06015KT 9999 BKN031 OVC042 02/00 Q1003 NOSIG
22:00
M
2 °C 10 km+ 2.800 ft 050° 050° 15 kt METAR LFBH 082100Z AUTO 05015KT 9999 BKN028 BKN036 BKN044 02/00 Q1003 NOSIG
21:30
V
2 °C 10 km+ 3.600 ft 060° 060° 12 kt METAR LFBH 082030Z AUTO 06012KT 9999 SCT021 BKN036 OVC058 02/00 Q1003 NOSIG
21:00
M
3 °C 10 km+ 2.100 ft 060° 060° 17 kt METAR LFBH 082000Z AUTO 06017KT 9999 OVC021 03/00 Q1003 NOSIG
20:30
M
2 °C 10 km+ 1.900 ft 050° 050° 14 kt METAR LFBH 081930Z AUTO 05014KT 9999 OVC019 02/00 Q1003 NOSIG
20:00
M
2 °C 10 km+ 2.100 ft 050° 050° 14 kt METAR LFBH 081900Z AUTO 05014KT 9999 OVC021 02/00 Q1004 NOSIG
19:30
V
2 °C 10 km+ 5.200 ft 050° 050° 14 kt METAR LFBH 081830Z AUTO 05014KT 9999 FEW021 BKN052 OVC190 02/00 Q1004 NOSIG
19:00
M
3 °C 10 km+ 2.300 ft 050° 050° 13 kt METAR LFBH 081800Z AUTO 05013KT 9999 BKN023 OVC090 03/00 Q1004 NOSIG
18:30
V
3 °C 10 km+ 8.800 ft 050° 050° 12 kt METAR LFBH 081730Z AUTO 05012KT 9999 FEW025 BKN088 BKN180 03/00 Q1004 NOSIG
18:00
V
3 °C 10 km+ - 060° 060° 11 kt METAR LFBH 081700Z AUTO 06011KT CAVOK 03/00 Q1005 NOSIG
17:30
V
3 °C 10 km+ - 060° 060° 12 kt METAR LFBH 081630Z AUTO 06012KT CAVOK 03/00 Q1005 NOSIG
17:00
V
3 °C 10 km+ - 070° 070° 14 kt METAR LFBH 081600Z AUTO 07014KT CAVOK 03/00 Q1005 NOSIG
16:30
V
3 °C 10 km+ 20.000 ft 060° 060° 17 kt METAR LFBH 081530Z AUTO 06017KT 9999 FEW016 OVC200 03/00 Q1005 NOSIG
16:00
V
4 °C 10 km+ 20.000 ft 060° 060° 14 kt METAR LFBH 081500Z AUTO 06014KT 9999 FEW016 OVC200 04/01 Q1005 NOSIG
15:30
V
4 °C 10 km+ - 060° 060° 18 kt METAR LFBH 081430Z AUTO 06018KT CAVOK 04/01 Q1005 NOSIG
15:00
V
4 °C 10 km+ - 050° 050° 16 kt METAR LFBH 081400Z AUTO 05016KT CAVOK 04/01 Q1005 NOSIG
14:30
V
4 °C 10 km+ - 050° 050° 15 kt METAR LFBH 081330Z AUTO 05015KT CAVOK 04/01 Q1005 NOSIG
14:00
V
4 °C 10 km+ 21.000 ft 050° 050° 14 kt METAR LFBH 081300Z AUTO 05014KT 9999 FEW015 OVC210 04/01 Q1006 NOSIG
13:30
V
3 °C 10 km+ 23.000 ft 070° 070° 13 kt METAR LFBH 081230Z AUTO 07013KT 9999 SCT016 BKN230 03/00 Q1007 NOSIG
13:00
V
3 °C 10 km+ - 070° 070° 15 kt METAR LFBH 081200Z AUTO 07015KT 9999 SCT014 03/M00 Q1007 NOSIG
12:30
M
3 °C 10 km+ 1.400 ft 060° 060° 16 kt METAR LFBH 081130Z AUTO 06016KT 9999 OVC014 03/M00 Q1007 BECMG BKN020
12:00
M
2 °C 10 km+ 1.300 ft 060° 060° 14 kt METAR LFBH 081100Z AUTO 06014KT 9999 OVC013 02/00 Q1008 BECMG BKN020
11:30
M
2 °C 10 km+ 1.200 ft 060° 060° 17 kt METAR LFBH 081030Z AUTO 06017KT 9999 OVC012 02/M00 Q1008 BECMG BKN020
11:00
M
2 °C 10 km+ 1.100 ft 070° 070° 11 kt METAR LFBH 081000Z AUTO 07011KT 9999 OVC011 02/M00 Q1009 BECMG BKN020
10:30
M
1 °C 10 km+ 1.100 ft 070° 070° 16 kt METAR LFBH 080930Z AUTO 07016KT 9999 OVC011 01/M01 Q1009 BECMG BKN020
10:00
M
1 °C 10 km+ 1.100 ft 070° 070° 14 kt METAR LFBH 080900Z AUTO 07014KT 9999 OVC011 01/M00 Q1009 TEMPO BKN008
09:30
M
1 °C 10 km+ 1.200 ft 070° 070° 12 kt METAR LFBH 080830Z AUTO 07012KT 9999 OVC012 01/M00 Q1009 TEMPO BKN008
09:00
M
1 °C 10 km+ 1.200 ft 060° 060° 15 kt METAR LFBH 080800Z AUTO 06015KT 9999 OVC012 01/M00 Q1009 TEMPO BKN008
08:30
M
1 °C 10 km+ 1.200 ft 060° 060° 12 kt METAR LFBH 080730Z AUTO 06012KT 9999 OVC012 01/M00 Q1009 TEMPO BKN008
08:00
M
1 °C 10 km+ 1.200 ft 060° 060° 15 kt METAR LFBH 080700Z AUTO 06015KT 9999 OVC012 01/M00 Q1009 TEMPO 3000 BR BKN008
07:30
M
1 °C 10 km+ 1.100 ft 070° 070° 11 kt METAR LFBH 080630Z AUTO 07011KT 9999 OVC011 01/M00 Q1010 TEMPO 3000 BR BKN008
07:00
M
1 °C 9 km 1.100 ft 060° 060° 12 kt METAR LFBH 080600Z AUTO 06012KT 9000 OVC011 01/M00 Q1010 TEMPO 3000 BR BKN003
06:30
M
0 °C 7 km 1.100 ft 050° 050° 13 kt METAR LFBH 080530Z AUTO 05013KT 7000 OVC011 00/M00 Q1010 TEMPO 3000 BR BKN003
06:00
M
0 °C 6 km 1.000 ft 050° 050° 10 kt METAR LFBH 080500Z AUTO 05010KT 6000 OVC010 M00/M00 Q1010 TEMPO 3000 BR
05:30
M
0 °C 5 km 1.000 ft 040° 040° 9 kt METAR LFBH 080430Z AUTO 04009KT 5000 BR OVC010 M00/M01 Q1010 NOSIG
05:00
M
-1 °C 6 km - 050° 050° 7 kt METAR LFBH 080400Z AUTO 05007KT 6000 SCT011 M01/M01 Q1011 TEMPO 3000 BR BKN003
04:30
M
-2 °C 5 km - 040° 040° 6 kt METAR LFBH 080330Z AUTO 04006KT 5000 BR NSC M02/M02 Q1011 TEMPO BKN003
04:00
M
-1 °C 5 km - 040° 040° 7 kt METAR LFBH 080300Z AUTO 04007KT 5000 BR NSC M01/M02 Q1011 TEMPO BKN003
03:30
M
-1 °C 6 km - 050° 050° 8 kt METAR LFBH 080230Z AUTO 05008KT 6000 NSC M01/M02 Q1012 TEMPO 3000 BR BKN003
03:00
M
-1 °C 6 km - 040° 040° 9 kt METAR LFBH 080200Z AUTO 04009KT 6000 NSC M01/M01 Q1012 TEMPO 3000 BR BKN003
02:30
M
-1 °C 6 km - 040° 040° 9 kt METAR LFBH 080130Z AUTO 04009KT 6000 NSC M01/M01 Q1012 TEMPO 3000 BR BKN003
02:00
M
0 °C 7 km - 040° 040° 8 kt METAR LFBH 080100Z AUTO 04008KT 7000 NSC M00/M01 Q1012 TEMPO 3000 BR BKN003
01:30
V
0 °C 8 km - 030° 030° 8 kt METAR LFBH 080030Z AUTO 03008KT 8000 NSC M00/M01 Q1013 TEMPO 3000 BR BKN003
01:00
V
0 °C 8 km - 030° 030° 7 kt METAR LFBH 080000Z AUTO 03007KT 8000 NSC M00/M01 Q1013 BECMG BKN012
00:30
V
0 °C 8 km - 020° 020° 7 kt METAR LFBH 072330Z AUTO 02007KT 8000 NSC M00/M01 Q1013 BECMG BKN012
00:00
V
0 °C 9 km - 020° 020° 7 kt METAR LFBH 072300Z AUTO 02007KT 9000 NSC M00/M01 Q1014 TEMPO 3000 BR BKN003

7 décembre 2022

Temps Code Temps Temp. Vue Base cloud Vent METAR/SPECI
23:30
V
0 °C 10 km+ - 020° 020° 7 kt METAR LFBH 072230Z AUTO 02007KT CAVOK M00/M01 Q1014 TEMPO 3000 BR BKN003
23:00
V
0 °C 10 km+ - 020° 020° 6 kt METAR LFBH 072200Z AUTO 02006KT CAVOK 00/M01 Q1014 TEMPO 3000 BR BKN003
22:30
V
0 °C 10 km+ - 030° 030° 7 kt METAR LFBH 072130Z AUTO 03007KT CAVOK 00/M01 Q1014 TEMPO 3000 BR BKN003
22:00
V
0 °C 10 km+ - 020° 020° 6 kt METAR LFBH 072100Z AUTO 02006KT CAVOK 00/M01 Q1014 BECMG BKN012
21:30
V
1 °C 10 km+ - 030° 030° 6 kt METAR LFBH 072030Z AUTO 03006KT CAVOK 01/M01 Q1015 BECMG BKN012
21:00
V
1 °C 10 km+ - 020° 020° 6 kt METAR LFBH 072000Z AUTO 02006KT CAVOK 01/M01 Q1015 BECMG BKN012
20:30
V
1 °C 9 km - 020° 020° 5 kt METAR LFBH 071930Z AUTO 02005KT 9000 NSC 01/M01 Q1015 BECMG BKN012
20:00
V
1 °C 10 km+ - 030° 030° 5 kt METAR LFBH 071900Z AUTO 03005KT CAVOK 01/M00 Q1015 NOSIG
19:30
V
1 °C 10 km+ - 040° 040° 7 kt METAR LFBH 071830Z AUTO 04007KT CAVOK 01/M00 Q1015 NOSIG
19:00
V
2 °C 10 km+ - 050° 050° 7 kt METAR LFBH 071800Z AUTO 05007KT CAVOK 02/M00 Q1015 NOSIG
18:30
V
3 °C 10 km+ - 050° 050° 8 kt METAR LFBH 071730Z AUTO 05008KT 9999 SCT023 03/01 Q1015 NOSIG
18:00
M
4 °C 10 km+ 2.400 ft 050° 050° 10 kt METAR LFBH 071700Z AUTO 05010KT 9999 BKN024 04/01 Q1015 BECMG BKN012
17:30
M
4 °C 10 km+ 2.200 ft 050° 050° 9 kt METAR LFBH 071630Z AUTO 05009KT 9999 BKN022 04/01 Q1015 BECMG BKN012
17:00
V
5 °C 10 km+ - 060° 060° 10 kt METAR LFBH 071600Z AUTO 06010KT 9999 SCT021 05/02 Q1015 BECMG BKN012
16:30
V
5 °C 10 km+ - 050° 050° 13 kt METAR LFBH 071530Z AUTO 05013KT CAVOK 05/01 Q1016 BECMG BKN012
16:00
M
5 °C 10 km+ 2.400 ft 050° 050° 14 kt METAR LFBH 071500Z AUTO 05014KT 9999 BKN024 05/01 Q1015 NOSIG
15:30
M
6 °C 10 km+ 2.300 ft 050° 050° 14 kt METAR LFBH 071430Z AUTO 05014KT 9999 OVC023 06/02 Q1016 NOSIG
15:00
M
6 °C 10 km+ 2.300 ft 050° 050° 12 kt METAR LFBH 071400Z AUTO 05012KT 9999 OVC023 06/02 Q1016 NOSIG
14:30
M
7 °C 10 km+ 2.300 ft 050° 050° 13 kt METAR LFBH 071330Z AUTO 05013KT 9999 OVC023 07/02 Q1016 NOSIG
14:00
M
6 °C 10 km+ 2.200 ft 060° 060° 13 kt METAR LFBH 071300Z AUTO 06013KT 9999 OVC022 06/02 Q1017 NOSIG
13:30
M
6 °C 10 km+ 2.100 ft 070° 070° 16 kt METAR LFBH 071230Z AUTO 07016KT 9999 OVC021 06/02 Q1017 NOSIG
13:00
M
6 °C 10 km+ 2.100 ft 070° 070° 17 kt METAR LFBH 071200Z AUTO 07017KT 9999 OVC021 06/02 Q1017 NOSIG
12:30
M
6 °C 10 km+ 2.100 ft 060° 060° 15 kt METAR LFBH 071130Z AUTO 06015KT 9999 OVC021 06/02 Q1018 NOSIG
12:00
M
6 °C 10 km+ 2.100 ft 060° 060° 15 kt METAR LFBH 071100Z AUTO 06015KT 9999 OVC021 06/02 Q1018 TEMPO BKN012
11:30
V
5 °C 10 km+ - 050° 050° 10 kt METAR LFBH 071030Z AUTO 05010KT 9999 FEW019 05/03 Q1019 TEMPO BKN012
11:00
V
4 °C 10 km+ - 040° 040° 9 kt METAR LFBH 071000Z AUTO 04009KT CAVOK 04/02 Q1019 TEMPO BKN012
10:30
V
4 °C 10 km+ - 040° 040° 8 kt METAR LFBH 070930Z AUTO 04008KT CAVOK 04/02 Q1019 TEMPO BKN012
10:00
V
3 °C 10 km+ - 050° 050° 8 kt METAR LFBH 070900Z AUTO 05008KT CAVOK 03/02 Q1019 TEMPO BKN013
09:30
V
2 °C 10 km+ - 040° 040° 9 kt METAR LFBH 070830Z AUTO 04009KT CAVOK 02/01 Q1019 TEMPO BKN013
09:00
V
1 °C 10 km+ - 040° 040° 7 kt METAR LFBH 070800Z AUTO 04007KT CAVOK 01/00 Q1019 BECMG BKN013
08:30
V
2 °C 10 km+ - 040° 040° 7 kt METAR LFBH 070730Z AUTO 04007KT CAVOK 02/00 Q1018 BECMG BKN013
08:00
V
3 °C 10 km+ - 060° 060° 8 kt METAR LFBH 070700Z AUTO 06008KT CAVOK 03/00 Q1018 BECMG BKN013
07:30
V
3 °C 10 km+ - 060° 060° 10 kt METAR LFBH 070630Z AUTO 06010KT 9999 SCT018 03/01 Q1018 BECMG BKN013
07:00
M
4 °C 10 km+ 1.800 ft 060° 060° 11 kt METAR LFBH 070600Z AUTO 06011KT 9999 OVC018 04/02 Q1018 BECMG BKN013
06:30
M
4 °C 10 km+ 1.800 ft 060° 060° 11 kt METAR LFBH 070530Z AUTO 06011KT 9999 OVC018 04/02 Q1018 TEMPO BKN013
06:00
M
4 °C 10 km+ 1.700 ft 060° 060° 10 kt METAR LFBH 070500Z AUTO 06010KT 9999 OVC017 04/02 Q1018 TEMPO BKN013
05:30
M
4 °C 10 km+ 1.700 ft 050° 050° 7 kt METAR LFBH 070430Z AUTO 05007KT 030V090 9999 OVC017 04/02 Q1018 TEMPO BKN013
05:00
M
3 °C 10 km+ 1.700 ft 060° 060° 7 kt METAR LFBH 070400Z AUTO 06007KT 9999 OVC017 03/02 Q1018 TEMPO BKN013
04:30
M
2 °C 10 km+ 1.700 ft 030° 030° 4 kt METAR LFBH 070330Z AUTO 03004KT 9999 BKN017 02/01 Q1019 TEMPO BKN013
04:00
V
1 °C 10 km+ - 050° 050° 6 kt METAR LFBH 070300Z AUTO 05006KT 9999 SCT017 01/00 Q1019 BECMG BKN013
03:30
M
2 °C 10 km+ 1.700 ft 050° 050° 7 kt METAR LFBH 070230Z AUTO 05007KT 9999 OVC017 02/01 Q1019 BECMG BKN013
03:00
M
2 °C 10 km+ 1.700 ft 050° 050° 8 kt METAR LFBH 070200Z AUTO 05008KT 9999 BKN017 02/01 Q1019 BECMG BKN013
02:30
V
1 °C 10 km+ - 040° 040° 7 kt METAR LFBH 070130Z AUTO 04007KT CAVOK 01/00 Q1019 BECMG BKN013
02:00
V
1 °C 10 km+ - 040° 040° 7 kt METAR LFBH 070100Z AUTO 04007KT CAVOK 01/M00 Q1019 BECMG BKN013
01:30
V
2 °C 10 km+ - 040° 040° 8 kt METAR LFBH 070030Z AUTO 04008KT CAVOK 02/01 Q1019 BECMG BKN013
01:00
V
2 °C 10 km+ - 030° 030° 7 kt METAR LFBH 070000Z AUTO 03007KT CAVOK 02/01 Q1019 BECMG BKN013
00:30
V
2 °C 9 km - 040° 040° 8 kt METAR LFBH 062330Z AUTO 04008KT 9000 NSC 02/01 Q1019 TEMPO BKN008
00:00
V
2 °C 9 km - 040° 040° 7 kt METAR LFBH 062300Z AUTO 04007KT 9000 NSC 02/01 Q1019 TEMPO BKN008

6 décembre 2022

Temps Code Temps Temp. Vue Base cloud Vent METAR/SPECI
23:30
V
3 °C 10 km+ - 050° 050° 9 kt METAR LFBH 062230Z AUTO 05009KT CAVOK 03/02 Q1019 TEMPO BKN008
23:00
V
3 °C 10 km+ - 050° 050° 9 kt METAR LFBH 062200Z AUTO 05009KT CAVOK 03/02 Q1019 TEMPO BKN008
22:30
V
3 °C 10 km+ - 040° 040° 8 kt METAR LFBH 062130Z AUTO 04008KT CAVOK 03/01 Q1019 TEMPO BKN008
22:00
M
3 °C 10 km+ 1.300 ft 060° 060° 10 kt METAR LFBH 062100Z AUTO 06010KT 9999 BKN013 03/02 Q1019 TEMPO BKN008
21:30
M
3 °C 10 km+ 1.300 ft 050° 050° 9 kt METAR LFBH 062030Z AUTO 05009KT 9999 OVC013 03/02 Q1019 TEMPO BKN008
21:00
M
3 °C 10 km+ 1.200 ft 060° 060° 10 kt METAR LFBH 062000Z AUTO 06010KT 9999 BKN012 03/02 Q1019 NOSIG
20:30
V
3 °C 10 km+ - 050° 050° 11 kt METAR LFBH 061930Z AUTO 05011KT 9999 FEW012 03/02 Q1019 BECMG OVC012
20:00
V
3 °C 10 km+ - 060° 060° 11 kt METAR LFBH 061900Z AUTO 06011KT 9999 SCT012 03/02 Q1018 BECMG OVC012
19:30
V
3 °C 10 km+ - 050° 050° 12 kt METAR LFBH 061830Z AUTO 05012KT CAVOK 03/02 Q1018 BECMG OVC012
19:00
V
4 °C 10 km+ - 050° 050° 11 kt METAR LFBH 061800Z AUTO 05011KT CAVOK 04/02 Q1018 BECMG OVC012
18:30
V
4 °C 10 km+ - 060° 060° 11 kt METAR LFBH 061730Z AUTO 06011KT 9999 FEW013 04/02 Q1018 BECMG OVC009
18:00
M
4 °C 10 km+ 1.200 ft 060° 060° 10 kt METAR LFBH 061700Z AUTO 06010KT 9999 BKN012 04/02 Q1018 BECMG OVC009
17:30
M
4 °C 10 km+ 1.100 ft 060° 060° 13 kt METAR LFBH 061630Z AUTO 06013KT 9999 BKN011 04/02 Q1018 BECMG OVC009
17:00
M
5 °C 10 km+ 1.100 ft 060° 060° 11 kt METAR LFBH 061600Z AUTO 06011KT 9999 OVC011 05/03 Q1018 BECMG OVC009
16:30
M
5 °C 10 km+ 1.100 ft 060° 060° 14 kt METAR LFBH 061530Z AUTO 06014KT 9999 BKN011 05/03 Q1017 BECMG OVC009
16:00
M
5 °C 10 km+ 1.100 ft 050° 050° 15 kt METAR LFBH 061500Z AUTO 05015KT 9999 BKN011 05/03 Q1018 BECMG OVC009
15:30
M
6 °C 10 km+ 1.100 ft 050° 050° 15 kt METAR LFBH 061430Z AUTO 05015KT 9999 BKN011 06/03 Q1017 BECMG OVC009
15:00
V
6 °C 10 km+ - 060° 060° 12 kt METAR LFBH 061400Z AUTO 06012KT CAVOK 06/03 Q1017 BECMG OVC009
14:30
M
6 °C 10 km+ 1.200 ft 060° 060° 12 kt METAR LFBH 061330Z AUTO 06012KT 9999 BKN012 06/04 Q1018 BECMG OVC009
14:00
V
6 °C 10 km+ - 070° 070° 12 kt METAR LFBH 061300Z AUTO 07012KT 9999 SCT012 06/04 Q1018 TEMPO BKN008
13:30
M
7 °C 10 km+ 1.100 ft 060° 060° 12 kt METAR LFBH 061230Z AUTO 06012KT 9999 BKN011 07/04 Q1018 TEMPO BKN008
13:00
M
6 °C 10 km+ 1.100 ft 060° 060° 13 kt METAR LFBH 061200Z AUTO 06013KT 9999 BKN011 06/04 Q1018 TEMPO BKN008
12:30
M
6 °C 10 km+ 1.000 ft 080° 080° 10 kt METAR LFBH 061130Z AUTO 08010KT 9999 OVC010 06/04 Q1018 BECMG NSC
12:00
I
5 °C 10 km+ 900 ft 060° 060° 13 kt METAR LFBH 061100Z AUTO 06013KT 9999 OVC009 05/04 Q1018 BECMG NSC
11:30
I
4 °C 10 km+ 900 ft 060° 060° 13 kt METAR LFBH 061030Z AUTO 06013KT 9999 OVC009 04/03 Q1019 BECMG NSC
11:00
I
4 °C 10 km+ 800 ft 060° 060° 13 kt METAR LFBH 061000Z AUTO 06013KT 9999 OVC008 04/03 Q1019 BECMG NSC

Nous et des tiers suivons ton comportement Internet sur notre site Web à l'aide de cookies. Si tu continues, nous supposons que tu es d'accord avec notre Politique en matière de cookies.